Time;durP1;ratioP1;P1;durP2;ratioP2;P2;SDS_P1;SDS_P2;PMS_P1;PMS_P2;Temp;Humidity;BMP_temperature;BMP_pressure;BME280_temperature;BME280_humidity;BME280_pressure;Samples;Min_cycle;Max_cycle;Signal;HPM_P1;HPM_P2
2022/10/03 00:00:23;;;;;;;4.38;2.10;;;;;;;12.59;43.94;102113.41;4999080;28;20049;-71
2022/10/03 00:03:29;;;;;;;5.32;2.13;;;;;;;12.56;43.85;102104.53;5007834;28;20395;-71
2022/10/03 00:06:09;;;;;;;5.05;2.50;;;;;;;12.54;44.37;102115.66;5006671;28;20042;-71
2022/10/03 00:08:51;;;;;;;6.25;2.50;;;;;;;12.52;43.85;102114.00;5007631;28;20046;-72
2022/10/03 00:11:31;;;;;;;6.13;2.88;;;;;;;12.48;43.89;102116.97;5002199;28;20132;-72
2022/10/03 00:14:09;;;;;;;7.10;2.85;;;;;;;12.46;43.79;102118.94;5007030;28;20121;-71
2022/10/03 00:16:45;;;;;;;4.53;2.60;;;;;;;12.45;43.77;102132.81;4993687;28;20050;-72
2022/10/03 00:19:24;;;;;;;5.57;2.70;;;;;;;12.41;44.06;102129.41;4993216;28;20404;-72
2022/10/03 00:22:02;;;;;;;4.65;2.40;;;;;;;12.39;44.54;102139.63;5002873;28;20419;-72
2022/10/03 00:24:41;;;;;;;6.50;2.78;;;;;;;12.36;44.20;102131.66;4994454;28;20057;-71
2022/10/03 00:27:17;;;;;;;4.90;2.70;;;;;;;12.34;44.30;102139.09;4988777;28;20133;-72
2022/10/03 00:30:01;;;;;;;5.47;2.17;;;;;;;12.31;44.47;102133.84;5007310;28;20546;-72
2022/10/03 00:32:58;;;;;;;6.38;2.60;;;;;;;12.28;44.05;102136.84;5006412;28;20054;-72
2022/10/03 00:35:41;;;;;;;5.78;2.42;;;;;;;12.25;43.98;102133.44;5006481;28;20435;-72
2022/10/03 00:38:19;;;;;;;;;;;;;;;11.94;44.63;102145.81;5007817;28;20049;-71
2022/10/03 00:41:12;;;;;;;5.38;2.47;;;;;;;12.15;44.58;102138.72;5018882;28;19921;-72
2022/10/03 00:44:15;;;;;;;5.15;2.30;;;;;;;12.12;44.09;102136.22;5004127;28;20073;-72
2022/10/03 00:47:00;;;;;;;4.75;2.40;;;;;;;12.11;44.66;102142.69;5005917;28;20057;-72
2022/10/03 00:49:57;;;;;;;4.47;2.30;;;;;;;12.09;44.55;102144.66;5001487;28;20561;-72
2022/10/03 00:52:42;;;;;;;5.13;2.30;;;;;;;12.07;44.23;102142.03;4989237;28;20057;-72
2022/10/03 00:55:24;;;;;;;5.25;2.47;;;;;;;12.04;44.24;102146.88;5011176;28;20042;-72
2022/10/03 00:58:18;;;;;;;6.18;2.30;;;;;;;11.98;44.21;102150.06;5010817;28;20052;-72
2022/10/03 01:00:50;;;;;;;6.63;2.53;;;;;;;11.97;44.03;102153.78;5009845;28;20046;-72
2022/10/03 01:03:34;;;;;;;4.68;2.75;;;;;;;11.93;44.62;102153.16;5010604;28;20041;-72
2022/10/03 01:06:19;;;;;;;6.15;2.42;;;;;;;11.92;44.34;102156.88;5009492;28;20057;-72
2022/10/03 01:09:05;;;;;;;4.95;2.78;;;;;;;11.88;44.65;102158.09;5011659;28;20026;-72
2022/10/03 01:11:46;;;;;;;6.28;2.78;;;;;;;11.85;44.22;102155.56;5007037;28;20511;-72
2022/10/03 01:14:31;;;;;;;7.18;2.58;;;;;;;11.83;45.05;102156.66;5010587;28;20570;-72
2022/10/03 01:17:12;;;;;;;4.75;2.70;;;;;;;11.81;44.80;102162.25;5010440;28;20092;-72
2022/10/03 01:20:05;;;;;;;6.22;2.42;;;;;;;11.78;44.49;102164.34;4998807;28;20037;-72
2022/10/03 01:23:01;;;;;;;6.20;2.60;;;;;;;11.75;44.66;102159.97;5007197;28;20056;-73
2022/10/03 01:25:39;;;;;;;5.68;2.55;;;;;;;11.75;44.49;102162.72;5003034;28;20053;-71
2022/10/03 01:31:19;;;;;;;5.40;2.60;;;;;;;11.70;44.92;102163.06;4998916;28;20046;-72
2022/10/03 01:33:54;;;;;;;5.40;2.47;;;;;;;11.70;44.46;102160.31;5005390;28;20081;-72
2022/10/03 01:36:32;;;;;;;5.53;2.00;;;;;;;11.71;44.64;102169.41;4999830;28;20053;-72
2022/10/03 01:39:07;;;;;;;7.90;2.33;;;;;;;11.68;44.79;102158.66;4989607;28;20046;-72
2022/10/03 01:41:47;;;;;;;4.43;2.50;;;;;;;11.69;44.59;102153.06;5008619;28;20054;-73
2022/10/03 01:44:23;;;;;;;4.95;2.30;;;;;;;11.68;44.25;102158.66;4999234;28;20065;-72
2022/10/03 01:46:55;;;;;;;5.68;2.40;;;;;;;11.67;44.20;102159.63;5024170;28;20057;-72
2022/10/03 01:49:36;;;;;;;5.88;2.47;;;;;;;11.66;44.39;102166.97;5009930;28;20136;-72
2022/10/03 01:52:10;;;;;;;5.95;2.75;;;;;;;11.65;44.82;102161.59;4991119;28;20049;-74
2022/10/03 01:54:44;;;;;;;5.35;2.60;;;;;;;11.64;44.26;102168.06;5014915;28;20041;-74
2022/10/03 01:57:20;;;;;;;5.80;2.58;;;;;;;11.61;44.68;102160.09;4991878;28;20042;-75
2022/10/03 01:59:58;;;;;;;7.05;3.35;;;;;;;11.60;44.79;102172.00;4991806;28;20531;-75
2022/10/03 02:02:35;;;;;;;3.83;2.30;;;;;;;11.58;44.78;102180.34;5008923;28;20507;-75
2022/10/03 02:05:11;;;;;;;5.80;2.80;;;;;;;11.56;44.23;102179.56;5009231;28;20049;-74
2022/10/03 02:07:52;;;;;;;4.55;2.55;;;;;;;11.54;44.35;102177.94;5008620;28;20098;-74
2022/10/03 02:10:32;;;;;;;4.78;2.40;;;;;;;11.51;44.61;102179.00;5005147;28;20080;-75
2022/10/03 02:13:07;;;;;;;4.75;2.83;;;;;;;11.49;44.56;102200.16;5009893;28;20503;-75
2022/10/03 02:15:55;;;;;;;5.57;2.33;;;;;;;11.47;44.44;102199.38;5008977;28;20129;-75
2022/10/03 02:18:30;;;;;;;5.70;2.50;;;;;;;11.46;44.76;102202.28;5000166;28;20049;-75
2022/10/03 02:21:09;;;;;;;6.25;2.50;;;;;;;11.44;44.91;102201.50;4989012;28;20096;-75
2022/10/03 02:23:39;;;;;;;4.53;2.50;;;;;;;11.40;44.34;102198.06;5009741;28;20050;-75
2022/10/03 02:26:30;;;;;;;5.22;2.38;;;;;;;11.39;44.53;102198.19;4995308;28;20050;-75
2022/10/03 02:29:20;;;;;;;5.40;2.40;;;;;;;11.36;44.45;102202.03;5009524;28;20471;-75
2022/10/03 02:32:20;;;;;;;5.03;2.80;;;;;;;11.30;44.95;102196.97;5006787;28;20092;-74
2022/10/03 02:35:10;;;;;;;6.70;2.75;;;;;;;11.26;44.55;102190.81;5009078;28;20050;-74
2022/10/03 02:37:59;;;;;;;6.57;2.55;;;;;;;11.24;44.63;102192.78;4997090;28;20076;-74
2022/10/03 02:40:47;;;;;;;4.20;2.35;;;;;;;11.22;44.59;102197.50;5007668;28;20057;-74
2022/10/03 02:43:52;;;;;;;5.82;2.67;;;;;;;11.17;45.10;102198.78;5002350;28;20056;-74
2022/10/03 02:46:53;;;;;;;4.97;2.33;;;;;;;11.14;44.84;102205.34;5006884;28;20052;-74
2022/10/03 02:50:03;;;;;;;4.90;2.65;;;;;;;11.08;44.75;102207.66;5000796;28;20042;-75
2022/10/03 02:53:06;;;;;;;4.90;2.60;;;;;;;11.08;44.94;102202.16;4979517;28;20498;-74
2022/10/03 02:56:04;;;;;;;4.78;2.47;;;;;;;11.05;45.36;102203.28;4997643;28;20050;-74
2022/10/03 02:58:55;;;;;;;4.18;2.40;;;;;;;11.04;44.81;102203.38;4997001;28;20058;-75
2022/10/03 03:01:53;;;;;;;5.20;2.92;;;;;;;11.01;45.56;102212.66;5023024;28;20042;-75
2022/10/03 03:05:17;;;;;;;6.00;2.67;;;;;;;10.93;45.40;102215.06;4996763;28;20139;-74
2022/10/03 03:08:13;;;;;;;4.70;2.63;;;;;;;10.95;45.28;102224.94;4989550;28;20054;-74
2022/10/03 03:11:07;;;;;;;5.35;2.60;;;;;;;10.94;44.86;102223.16;5016764;28;20085;-74
2022/10/03 03:14:11;;;;;;;7.35;2.75;;;;;;;10.91;45.46;102225.22;5012752;28;20404;-74
2022/10/03 03:16:56;;;;;;;6.35;2.70;;;;;;;10.92;45.09;102227.88;4996307;28;20052;-74
2022/10/03 03:19:52;;;;;;;4.50;2.90;;;;;;;10.92;45.02;102232.47;4993420;28;20137;-74
2022/10/03 03:22:34;;;;;;;6.13;2.70;;;;;;;10.88;45.16;102229.06;4998637;28;20711;-74
2022/10/03 03:25:22;;;;;;;5.00;2.88;;;;;;;10.87;45.30;102234.66;5007151;28;20050;-74
2022/10/03 03:28:04;;;;;;;6.60;2.40;;;;;;;10.86;45.35;102231.03;5009002;28;20073;-73
2022/10/03 03:30:40;;;;;;;5.50;2.67;;;;;;;10.83;45.49;102231.22;5018770;28;20125;-74
2022/10/03 03:33:19;;;;;;;5.63;2.60;;;;;;;10.83;45.13;102231.22;5003325;28;20291;-74
2022/10/03 03:36:00;;;;;;;6.03;2.60;;;;;;;10.83;45.42;102230.34;4995312;28;20050;-75
2022/10/03 03:38:36;;;;;;;5.85;2.72;;;;;;;10.82;45.56;102232.19;5007967;28;20046;-74
2022/10/03 03:41:31;;;;;;;4.45;2.35;;;;;;;10.79;45.72;102231.53;4995757;28;20128;-73
2022/10/03 03:44:11;;;;;;;5.47;2.60;;;;;;;10.79;45.31;102226.94;4987899;28;20054;-74
2022/10/03 03:47:02;;;;;;;4.90;2.90;;;;;;;10.78;45.58;102227.03;5007107;28;20096;-74
2022/10/03 03:49:54;;;;;;;5.03;2.55;;;;;;;10.75;45.81;102219.91;5013296;28;20045;-74
2022/10/03 03:52:40;;;;;;;6.75;3.35;;;;;;;10.74;45.73;102229.09;4997677;28;20539;-74
2022/10/03 03:55:26;;;;;;;6.70;2.58;;;;;;;10.74;45.55;102231.84;5010139;28;20055;-74
2022/10/03 03:58:17;;;;;;;5.13;2.88;;;;;;;10.73;45.60;102229.22;4994630;28;20507;-74
2022/10/03 04:01:05;;;;;;;4.85;2.83;;;;;;;10.71;45.80;102229.31;5006959;28;20055;-74
2022/10/03 04:03:44;;;;;;;7.85;3.17;;;;;;;10.69;46.18;102231.28;5002762;28;20046;-74
2022/10/03 04:06:34;;;;;;;6.35;2.67;;;;;;;10.70;45.90;102237.63;5004093;28;20041;-74
2022/10/03 04:09:43;;;;;;;5.43;2.55;;;;;;;10.65;45.95;102235.19;5007241;28;20080;-74
2022/10/03 04:12:28;;;;;;;5.53;2.72;;;;;;;10.67;46.04;102240.56;4990061;28;20045;-74
2022/10/03 04:15:14;;;;;;;4.85;2.75;;;;;;;10.65;45.96;102243.41;5007893;28;20414;-74
2022/10/03 04:21:05;;;;;;;7.13;2.63;;;;;;;10.62;45.99;102245.47;5008030;28;20066;-74
2022/10/03 04:23:56;;;;;;;5.40;2.50;;;;;;;10.62;46.01;102251.81;4997458;28;20053;-74
2022/10/03 04:26:41;;;;;;;5.13;2.40;;;;;;;10.63;46.30;102248.13;4994617;28;20046;-74
2022/10/03 04:29:29;;;;;;;5.82;2.70;;;;;;;10.63;46.10;102255.44;4993544;28;20486;-74
2022/10/03 04:32:10;;;;;;;4.93;2.70;;;;;;;10.62;46.63;102240.88;5007213;28;20057;-74
2022/10/03 04:34:50;;;;;;;5.97;2.70;;;;;;;10.64;46.10;102249.00;4996659;28;20041;-74
2022/10/03 04:37:26;;;;;;;5.82;2.58;;;;;;;10.59;46.30;102241.06;5000395;28;20072;-74
2022/10/03 04:40:17;;;;;;;6.38;2.80;;;;;;;10.63;46.92;102242.63;5006694;28;20530;-74
2022/10/03 04:42:57;;;;;;;4.60;2.60;;;;;;;10.64;46.13;102246.25;5004755;28;20141;-74
2022/10/03 04:45:37;;;;;;;5.93;2.90;;;;;;;10.64;46.82;102249.88;4985234;28;20415;-74
2022/10/03 04:48:16;;;;;;;6.70;3.15;;;;;;;10.64;46.89;102247.13;4998673;28;20042;-74
2022/10/03 04:50:57;;;;;;;7.63;3.13;;;;;;;10.64;46.96;102255.34;4993984;28;20049;-74
2022/10/03 04:53:41;;;;;;;5.22;2.85;;;;;;;10.64;46.51;102249.00;5001524;28;20076;-74
2022/10/03 04:56:40;;;;;;;6.95;2.80;;;;;;;10.61;46.71;102252.81;5005971;28;20053;-74
2022/10/03 04:59:36;;;;;;;4.45;2.60;;;;;;;10.59;47.14;102249.28;4999026;28;20125;-74
2022/10/03 05:02:16;;;;;;;6.00;2.80;;;;;;;10.62;46.68;102245.47;5006463;28;20042;-74
2022/10/03 05:05:01;;;;;;;5.65;2.75;;;;;;;10.63;46.63;102248.13;5007656;28;20045;-74
2022/10/03 05:07:41;;;;;;;6.55;3.22;;;;;;;10.62;46.69;102243.63;4989347;28;20056;-74
2022/10/03 05:10:27;;;;;;;5.97;3.10;;;;;;;10.64;47.25;102249.88;5000404;28;20052;-74
2022/10/03 05:13:02;;;;;;;6.78;2.60;;;;;;;10.64;46.85;102251.72;5006640;28;20510;-74
2022/10/03 05:15:35;;;;;;;5.78;3.28;;;;;;;10.62;46.64;102248.22;5006557;28;20132;-74
2022/10/03 05:18:14;;;;;;;6.93;3.13;;;;;;;10.62;47.12;102253.69;5007571;28;20125;-74
2022/10/03 05:20:49;;;;;;;8.13;3.78;;;;;;;10.62;47.24;102257.31;5006807;28;20112;-74
2022/10/03 05:23:32;;;;;;;6.28;2.92;;;;;;;10.63;47.41;102260.91;5007592;28;20470;-74
2022/10/03 05:26:08;;;;;;;5.70;2.35;;;;;;;10.63;47.26;102258.19;5021801;28;20050;-74
2022/10/03 05:29:04;;;;;;;7.85;2.95;;;;;;;10.63;47.08;102269.13;4994562;28;20050;-74
2022/10/03 05:31:46;;;;;;;5.15;3.03;;;;;;;10.64;47.21;102273.63;4994045;28;20065;-74
2022/10/03 05:34:28;;;;;;;5.93;2.90;;;;;;;10.63;47.23;102272.75;4982673;28;20071;-74
2022/10/03 05:37:14;;;;;;;6.15;2.78;;;;;;;10.66;47.60;102272.53;5010244;28;20800;-74
2022/10/03 05:39:53;;;;;;;5.22;2.60;;;;;;;10.65;47.43;102276.25;4997640;28;20046;-74
2022/10/03 05:42:36;;;;;;;5.70;2.78;;;;;;;10.68;47.96;102275.19;5010173;28;20069;-74
2022/10/03 05:45:17;;;;;;;5.00;2.77;;;;;;;10.67;47.41;102285.25;5009349;28;20403;-74
2022/10/03 05:47:50;;;;;;;5.35;2.80;;;;;;;10.72;47.50;102287.69;5010790;28;20311;-74
2022/10/03 05:50:49;;;;;;;5.82;2.67;;;;;;;10.72;47.39;102285.84;5016910;28;20073;-75
2022/10/03 05:53:42;;;;;;;7.30;3.10;;;;;;;10.73;47.40;102284.00;4991871;28;20132;-74
2022/10/03 05:56:28;;;;;;;6.40;2.60;;;;;;;10.73;47.52;102290.31;5008898;28;20037;-75
2022/10/03 05:59:42;;;;;;;5.03;2.70;;;;;;;10.69;48.02;102294.25;5011092;28;20054;-74
2022/10/03 06:02:45;;;;;;;5.72;2.65;;;;;;;10.71;48.01;102299.63;4949320;28;20532;-75
2022/10/03 06:05:23;;;;;;;5.05;2.60;;;;;;;10.73;47.76;102298.53;5010045;28;20056;-76
2022/10/03 06:08:19;;;;;;;5.72;2.60;;;;;;;10.78;47.74;102300.97;4996718;28;20076;-74
2022/10/03 06:10:58;;;;;;;5.18;2.78;;;;;;;10.78;47.62;102301.88;4992356;28;20046;-74
2022/10/03 06:13:47;;;;;;;5.63;2.88;;;;;;;10.81;48.04;102311.75;5009972;28;20069;-75
2022/10/03 06:16:30;;;;;;;5.88;2.80;;;;;;;10.82;47.86;102302.53;5015677;28;20084;-74
2022/10/03 06:19:23;;;;;;;4.93;2.75;;;;;;;10.82;47.85;102305.25;5010032;28;20529;-74
2022/10/03 06:22:51;;;;;;;6.80;2.80;;;;;;;10.75;48.12;102309.38;5009675;28;20507;-65
2022/10/03 06:26:00;;;;;;;6.65;2.67;;;;;;;10.80;48.42;102305.38;4991607;28;20046;-74
2022/10/03 06:29:09;;;;;;;6.80;2.92;;;;;;;10.80;48.16;102309.97;4999423;28;20093;-74
2022/10/03 06:32:28;;;;;;;5.53;2.50;;;;;;;10.79;48.43;102310.97;4979865;28;21918;-73
2022/10/03 06:35:31;;;;;;;5.43;2.70;;;;;;;10.83;48.21;102310.66;4966825;28;20058;-73
2022/10/03 06:38:21;;;;;;;4.05;2.58;;;;;;;10.85;48.50;102308.69;4963701;28;20141;-73
2022/10/03 06:41:25;;;;;;;4.00;2.47;;;;;;;10.88;49.02;102302.16;4991721;28;20104;-74
2022/10/03 06:44:14;;;;;;;4.90;2.70;;;;;;;10.91;48.83;102304.66;5012966;28;20053;-74
2022/10/03 06:47:18;;;;;;;5.68;3.05;;;;;;;10.94;49.30;102312.69;5009393;28;20080;-74
2022/10/03 06:50:19;;;;;;;6.25;3.15;;;;;;;10.98;48.87;102314.22;5004439;28;20057;-73
2022/10/03 06:53:20;;;;;;;6.28;3.15;;;;;;;11.01;49.04;102313.16;5011456;28;20050;-73
2022/10/03 06:56:07;;;;;;;5.80;2.90;;;;;;;11.06;48.94;102314.59;5009982;28;20061;-73
2022/10/03 06:58:54;;;;;;;6.95;3.00;;;;;;;11.11;49.32;102311.56;5011818;28;20085;-73
2022/10/03 07:01:44;;;;;;;5.45;3.42;;;;;;;11.15;49.01;102315.84;5010117;28;20132;-73
2022/10/03 07:04:52;;;;;;;7.53;3.25;;;;;;;11.14;49.09;102323.19;5010793;28;20057;-72
2022/10/03 07:08:01;;;;;;;6.10;3.28;;;;;;;11.22;49.17;102320.84;5011235;28;20045;-74
2022/10/03 07:10:48;;;;;;;6.72;3.38;;;;;;;11.29;49.06;102321.28;5010748;28;20053;-73
2022/10/03 07:13:36;;;;;;;7.68;3.60;;;;;;;11.35;48.94;102329.97;5017704;28;20073;-73
2022/10/03 07:16:42;;;;;;;5.97;3.60;;;;;;;11.41;49.53;102323.19;4999015;28;20425;-74
2022/10/03 07:19:36;;;;;;;8.32;3.53;;;;;;;11.48;49.87;102326.38;5012490;28;20518;-74
2022/10/03 07:22:47;;;;;;;8.90;3.50;;;;;;;11.61;49.97;102330.97;5009891;28;20145;-74
2022/10/03 07:25:58;;;;;;;7.70;3.42;;;;;;;11.77;50.77;102332.66;5021919;28;20049;-73
2022/10/03 07:28:59;;;;;;;7.45;3.35;;;;;;;12.03;50.40;102338.09;5010438;28;20045;-74
2022/10/03 07:31:43;;;;;;;7.57;3.53;;;;;;;12.31;50.09;102336.09;5010749;28;20038;-73
2022/10/03 07:34:31;;;;;;;5.70;3.33;;;;;;;12.55;49.33;102342.56;5014433;28;20050;-73
2022/10/03 07:40:39;;;;;;;7.35;3.60;;;;;;;12.92;48.14;102357.28;5009781;28;20046;-73
2022/10/03 07:43:45;;;;;;;5.40;3.13;;;;;;;13.03;47.85;102342.75;5002023;28;20053;-73
2022/10/03 07:46:44;;;;;;;6.55;3.30;;;;;;;13.14;47.43;102356.56;5009750;28;20066;-74
2022/10/03 07:49:30;;;;;;;8.05;3.72;;;;;;;13.23;47.38;102359.50;5009248;28;20052;-74
2022/10/03 07:52:30;;;;;;;8.70;3.35;;;;;;;13.27;47.19;102362.91;5003085;28;20069;-74
2022/10/03 07:55:25;;;;;;;6.10;3.42;;;;;;;13.25;47.05;102367.63;4999748;28;20053;-74
2022/10/03 07:58:14;;;;;;;8.20;3.50;;;;;;;13.28;46.63;102372.91;5021531;28;20060;-74
2022/10/03 08:01:06;;;;;;;5.80;3.28;;;;;;;13.27;46.92;102373.03;5008421;28;20046;-74
2022/10/03 08:04:04;;;;;;;4.97;3.13;;;;;;;13.22;46.98;102365.09;5010469;28;20516;-74
2022/10/03 08:06:42;;;;;;;7.00;3.03;;;;;;;13.24;47.18;102375.00;4999902;28;20233;-74
2022/10/03 08:09:51;;;;;;;6.63;3.70;;;;;;;13.21;46.96;102375.22;5005862;28;20475;-74
2022/10/03 08:12:56;;;;;;;5.55;3.30;;;;;;;13.18;46.83;102378.22;5006820;28;20388;-74
2022/10/03 08:15:36;;;;;;;6.97;3.20;;;;;;;13.19;46.60;102370.84;5007793;28;20053;-74
2022/10/03 08:18:40;;;;;;;6.20;3.50;;;;;;;13.15;47.03;102381.19;5015145;28;20538;-75
2022/10/03 08:21:16;;;;;;;6.53;3.40;;;;;;;13.14;46.70;102376.69;4992354;28;20042;-75
2022/10/03 08:24:05;;;;;;;8.98;3.67;;;;;;;13.14;46.82;102384.91;5010523;28;20470;-73
2022/10/03 08:26:59;;;;;;;7.50;3.53;;;;;;;13.11;47.04;102387.91;5009099;28;20042;-73
2022/10/03 08:30:04;;;;;;;6.40;3.10;;;;;;;13.13;47.73;102382.28;4984132;28;20058;-74
2022/10/03 08:32:55;;;;;;;5.82;3.50;;;;;;;13.17;47.60;102387.44;4980540;28;20071;-75
2022/10/03 08:35:34;;;;;;;6.45;2.95;;;;;;;13.24;48.30;102386.00;5008861;28;20050;-75
2022/10/03 08:38:25;;;;;;;5.68;3.30;;;;;;;13.34;48.39;102390.81;5012373;28;20056;-75
2022/10/03 08:41:33;;;;;;;6.82;3.30;;;;;;;13.41;48.52;102392.09;5007562;28;20104;-75
2022/10/03 08:44:54;;;;;;;7.72;3.83;;;;;;;13.55;48.03;102400.19;4984941;28;20064;-75
2022/10/03 08:47:46;;;;;;;6.20;3.13;;;;;;;13.76;48.34;102392.22;4923022;29;20092;-75
2022/10/03 08:50:47;;;;;;;6.43;3.40;;;;;;;13.91;47.86;102391.03;4994425;28;20518;-74
2022/10/03 08:53:47;;;;;;;6.00;3.45;;;;;;;14.12;48.22;102388.44;5010093;28;20101;-74
2022/10/03 08:56:21;;;;;;;6.47;2.90;;;;;;;14.30;48.34;102379.63;5001956;28;20056;-75
2022/10/03 08:59:22;;;;;;;5.32;3.17;;;;;;;14.47;46.87;102381.06;5010875;28;20094;-75
2022/10/03 09:02:20;;;;;;;5.90;2.83;;;;;;;14.67;46.86;102376.72;5009438;28;20503;-74
2022/10/03 09:05:09;;;;;;;6.35;2.78;;;;;;;14.87;47.14;102372.31;4999797;28;20045;-75
2022/10/03 09:08:20;;;;;;;6.53;2.97;;;;;;;14.99;46.65;102374.06;5009932;28;20081;-73
2022/10/03 09:11:29;;;;;;;6.38;2.67;;;;;;;15.17;46.07;102374.44;5012261;28;20043;-74
2022/10/03 09:14:42;;;;;;;6.22;2.95;;;;;;;15.37;45.75;102380.06;5010333;28;20499;-74
2022/10/03 09:17:48;;;;;;;7.97;3.10;;;;;;;15.53;45.50;102374.13;4954077;28;20172;-74
2022/10/03 09:20:55;;;;;;;7.22;2.78;;;;;;;15.64;45.44;102370.44;5011998;28;20530;-74
2022/10/03 09:24:00;;;;;;;4.55;2.50;;;;;;;15.82;45.39;102375.28;4963436;28;20527;-74
2022/10/03 09:27:13;;;;;;;6.60;2.42;;;;;;;15.91;45.03;102376.38;5012434;28;20049;-74
2022/10/03 09:30:04;;;;;;;4.50;2.60;;;;;;;16.02;45.16;102359.72;5028277;28;20068;-73
2022/10/03 09:33:06;;;;;;;7.57;2.42;;;;;;;16.18;44.28;102364.81;5017828;28;20496;-74
2022/10/03 09:36:09;;;;;;;4.65;2.40;;;;;;;16.27;44.59;102378.69;5008055;28;20060;-73
2022/10/03 09:39:01;;;;;;;5.53;2.25;;;;;;;16.40;44.24;102374.88;5001195;28;20125;-74
2022/10/03 09:42:12;;;;;;;5.43;2.53;;;;;;;16.49;44.32;102369.41;5011219;28;20050;-75
2022/10/03 09:45:09;;;;;;;5.03;2.40;;;;;;;16.66;43.75;102364.25;5011105;28;20474;-74
2022/10/03 09:48:12;;;;;;;6.50;2.35;;;;;;;16.79;43.45;102354.72;5012381;28;20045;-74
2022/10/03 09:51:21;;;;;;;7.05;2.45;;;;;;;16.87;43.77;102357.66;5010251;28;20042;-73
2022/10/03 09:54:31;;;;;;;4.85;2.20;;;;;;;17.03;43.73;102354.38;4985603;28;20046;-73
2022/10/03 09:57:56;;;;;;;5.32;2.58;;;;;;;17.13;42.83;102358.06;5001994;28;20156;-74
2022/10/03 10:00:30;;;;;;;4.65;2.28;;;;;;;17.30;43.12;102351.84;4985465;28;20075;-74
2022/10/03 10:03:31;;;;;;;4.97;2.40;;;;;;;17.43;42.74;102354.34;5012732;28;20403;-74
2022/10/03 10:06:16;;;;;;;4.93;2.33;;;;;;;17.52;42.78;102345.19;5011282;28;20046;-73
2022/10/03 10:09:12;;;;;;;5.70;2.38;;;;;;;17.63;42.23;102358.91;5011920;28;20046;-73
2022/10/03 10:12:04;;;;;;;4.95;2.05;;;;;;;17.72;42.02;102360.81;5005432;28;20049;-73
2022/10/03 10:14:59;;;;;;;4.18;1.92;;;;;;;17.81;42.17;102352.69;5021922;28;20133;-73
2022/10/03 10:18:15;;;;;;;5.47;2.15;;;;;;;17.86;41.61;102355.88;5011129;28;20050;-74
2022/10/03 10:21:19;;;;;;;5.15;2.03;;;;;;;18.00;41.43;102349.88;5008926;28;20100;-73
2022/10/03 10:24:00;;;;;;;5.03;2.10;;;;;;;18.11;41.78;102345.06;5012226;28;20034;-73
2022/10/03 10:27:13;;;;;;;4.65;1.75;;;;;;;18.17;41.32;102339.94;5013014;28;20066;-74
2022/10/03 10:30:09;;;;;;;4.78;1.80;;;;;;;18.22;40.99;102344.03;4962327;28;20069;-74
2022/10/03 10:33:23;;;;;;;5.85;1.90;;;;;;;18.29;39.64;102336.00;4990193;28;20050;-74
2022/10/03 10:36:24;;;;;;;5.13;1.85;;;;;;;18.32;39.72;102335.69;5014846;28;20049;-74
2022/10/03 10:39:28;;;;;;;3.90;1.85;;;;;;;18.32;39.99;102336.56;5000980;28;20073;-74
2022/10/03 10:42:48;;;;;;;6.38;2.08;;;;;;;18.27;40.54;102335.25;5009776;28;20065;-73
2022/10/03 10:45:44;;;;;;;4.07;1.52;;;;;;;18.33;40.67;102331.88;4999001;28;20050;-73
2022/10/03 10:49:13;;;;;;;3.65;1.40;;;;;;;18.33;40.02;102335.53;5005214;28;20045;-73
2022/10/03 10:52:08;;;;;;;3.33;1.20;;;;;;;18.40;38.99;102330.25;4995096;28;20053;-73
2022/10/03 10:55:05;;;;;;;3.80;1.58;;;;;;;18.39;39.38;102331.31;5010935;28;20042;-74
2022/10/03 10:58:05;;;;;;;5.05;1.35;;;;;;;18.42;39.08;102319.91;4989427;28;20422;-74
2022/10/03 11:00:56;;;;;;;3.80;1.30;;;;;;;18.43;38.67;102329.97;4988392;28;20046;-74
2022/10/03 11:04:05;;;;;;;3.55;1.00;;;;;;;18.37;39.34;102333.34;5010351;28;20048;-74
2022/10/03 11:07:11;;;;;;;3.55;1.50;;;;;;;18.38;38.47;102333.19;4999992;28;20060;-73
2022/10/03 11:09:52;;;;;;;3.95;1.40;;;;;;;18.45;38.13;102336.25;4977620;28;20537;-74
2022/10/03 11:12:57;;;;;;;3.20;1.30;;;;;;;18.46;38.30;102332.44;5013962;28;20069;-74
2022/10/03 11:15:58;;;;;;;4.95;1.20;;;;;;;18.44;38.30;102315.97;5021663;28;20042;-74
2022/10/03 11:19:08;;;;;;;3.88;1.05;;;;;;;18.42;38.60;102326.31;5019878;28;20045;-73
2022/10/03 11:22:10;;;;;;;4.57;1.00;;;;;;;18.48;38.24;102322.06;5009963;28;20050;-75
2022/10/03 11:25:17;;;;;;;2.45;0.98;;;;;;;18.45;37.68;102320.47;5017239;28;20534;-73
2022/10/03 11:28:13;;;;;;;3.33;1.05;;;;;;;18.47;38.02;102314.78;4997294;28;20519;-74
2022/10/03 11:31:22;;;;;;;3.55;1.15;;;;;;;18.45;37.96;102314.94;5004614;28;20045;-74
2022/10/03 11:34:35;;;;;;;2.50;0.90;;;;;;;18.42;37.92;102319.91;4997913;28;20149;-74
2022/10/03 11:37:16;;;;;;;3.35;1.10;;;;;;;18.42;37.61;102318.00;5009272;28;20558;-74
2022/10/03 11:39:53;;;;;;;4.32;1.15;;;;;;;18.43;38.04;102310.56;5010227;28;20050;-73
2022/10/03 11:42:40;;;;;;;3.28;1.10;;;;;;;18.40;37.63;102305.31;5008265;28;20395;-73
2022/10/03 11:45:24;;;;;;;2.30;0.82;;;;;;;18.38;37.34;102308.25;5008538;28;20112;-74
2022/10/03 11:48:01;;;;;;;2.88;0.93;;;;;;;18.36;37.71;102303.88;5009885;28;20047;-73
2022/10/03 11:50:43;;;;;;;3.30;1.13;;;;;;;18.36;37.48;102309.41;5009972;28;20478;-73
2022/10/03 11:53:37;;;;;;;3.60;0.73;;;;;;;18.32;37.83;102310.72;5003387;28;20058;-74
2022/10/03 11:56:33;;;;;;;2.58;1.13;;;;;;;18.34;37.60;102301.25;5006405;28;20046;-74
2022/10/03 11:59:34;;;;;;;3.13;0.90;;;;;;;18.37;38.24;102308.41;5010839;28;20073;-73
2022/10/03 12:02:14;;;;;;;2.95;1.05;;;;;;;18.46;37.41;102305.59;4989413;28;20042;-74
2022/10/03 12:04:52;;;;;;;3.97;1.10;;;;;;;18.55;37.69;102305.75;5009716;28;20089;-74
2022/10/03 12:10:37;;;;;;;4.03;1.05;;;;;;;18.72;37.23;102304.94;5008590;28;20490;-74
2022/10/03 12:13:12;;;;;;;5.53;1.17;;;;;;;18.81;36.97;102304.88;5006553;28;20042;-74
2022/10/03 12:15:45;;;;;;;2.75;0.90;;;;;;;18.88;37.29;102303.22;5017674;28;20046;-74
2022/10/03 12:18:21;;;;;;;3.95;1.17;;;;;;;18.94;36.67;102298.13;4985463;28;20100;-73
2022/10/03 12:21:10;;;;;;;3.90;1.23;;;;;;;18.99;36.16;102292.97;5009119;28;20054;-73
2022/10/03 12:23:56;;;;;;;3.67;1.27;;;;;;;19.03;35.90;102294.41;5024538;28;20049;-74
2022/10/03 12:26:41;;;;;;;5.13;1.25;;;;;;;19.06;36.21;102296.84;5005424;28;20388;-75
2022/10/03 12:29:12;;;;;;;3.35;1.13;;;;;;;19.07;36.19;102293.06;4999493;28;20157;-73
2022/10/03 12:31:47;;;;;;;2.78;1.17;;;;;;;19.09;36.24;102294.66;5004414;28;20054;-74
2022/10/03 12:34:34;;;;;;;4.15;1.17;;;;;;;19.09;35.28;102293.78;4986442;28;20524;-74
2022/10/03 12:37:22;;;;;;;3.13;0.90;;;;;;;19.09;35.53;102289.09;4996034;28;20058;-74
2022/10/03 12:40:01;;;;;;;3.65;1.00;;;;;;;19.10;35.36;102299.19;5008656;28;20069;-74
2022/10/03 12:42:34;;;;;;;3.55;1.00;;;;;;;19.08;35.73;102287.34;5008640;28;20053;-73
2022/10/03 12:45:08;;;;;;;2.05;0.90;;;;;;;19.09;35.46;102291.00;5013739;28;20045;-74
2022/10/03 12:47:54;;;;;;;3.20;0.82;;;;;;;19.08;35.07;102286.47;5018384;28;20117;-74
2022/10/03 12:50:46;;;;;;;4.07;1.05;;;;;;;19.02;35.06;102287.13;5013297;28;20125;-74
2022/10/03 12:53:27;;;;;;;2.83;0.73;;;;;;;19.02;34.54;102279.66;5011841;28;20060;-74
2022/10/03 12:56:05;;;;;;;2.63;1.02;;;;;;;19.01;34.86;102293.69;5012246;28;20113;-75
2022/10/03 12:58:43;;;;;;;2.67;1.05;;;;;;;19.00;35.07;102286.38;5014041;28;20041;-73
2022/10/03 13:01:19;;;;;;;2.80;0.70;;;;;;;18.97;35.12;102290.34;5012897;28;20073;-74
2022/10/03 13:03:53;;;;;;;2.30;0.77;;;;;;;18.98;35.17;102282.88;5012807;28;20065;-73
2022/10/03 13:07:05;;;;;;;3.28;0.90;;;;;;;18.88;35.04;102288.53;5012709;28;20049;-74
2022/10/03 13:09:59;;;;;;;1.90;0.60;;;;;;;18.95;34.78;102284.09;4952817;29;20051;-74
2022/10/03 13:12:38;;;;;;;3.50;0.98;;;;;;;18.97;34.57;102278.38;4948176;29;20585;-75
2022/10/03 13:15:43;;;;;;;3.67;2.22;;;;;;;18.96;34.98;102279.41;5000075;28;20081;-75
2022/10/03 13:18:32;;;;;;;4.45;1.45;;;;;;;18.97;34.45;102270.91;5006088;28;20494;-75
2022/10/03 13:21:08;;;;;;;2.55;1.02;;;;;;;18.99;34.74;102270.75;5011039;28;20074;-74
2022/10/03 13:24:03;;;;;;;2.13;0.88;;;;;;;19.01;35.32;102268.72;5015691;28;20793;-74